createdAt,value
2023-03-29T00:00:38.156Z,190.69
2023-03-29T00:01:38.151Z,190.69
2023-03-29T00:02:38.223Z,192.13
2023-03-29T00:03:38.051Z,191.02
2023-03-29T00:04:38.111Z,189.27
2023-03-29T00:05:38.160Z,191.80
2023-03-29T00:06:38.044Z,194.28
2023-03-29T00:07:37.951Z,193.14
2023-03-29T00:08:37.946Z,194.16
2023-03-29T00:09:37.954Z,193.82
2023-03-29T00:10:37.904Z,194.39
2023-03-29T00:11:37.868Z,196.35
2023-03-29T00:12:37.868Z,193.37
2023-03-29T00:13:37.850Z,193.60
2023-03-29T00:14:38.108Z,193.93
2023-03-29T00:15:38.150Z,193.93
2023-03-29T00:16:38.184Z,192.02
2023-03-29T00:17:38.208Z,190.69
2023-03-29T00:18:37.813Z,189.05
2023-03-29T00:19:37.773Z,187.87
2023-03-29T00:20:38.179Z,186.71
2023-03-29T00:21:37.755Z,187.77
2023-03-29T00:22:38.009Z,187.98
2023-03-29T00:23:38.177Z,188.73
2023-03-29T00:24:38.181Z,187.87
2023-03-29T00:25:38.176Z,187.13
2023-03-29T00:26:38.186Z,187.55
2023-03-29T00:27:38.171Z,189.38
2023-03-29T00:28:37.711Z,189.60
2023-03-29T00:29:37.675Z,190.69
2023-03-29T00:30:37.702Z,192.92
2023-03-29T00:31:37.740Z,193.37
2023-03-29T00:32:37.788Z,192.24
2023-03-29T00:33:37.744Z,191.35
2023-03-29T00:34:37.610Z,192.13
2023-03-29T00:35:37.798Z,189.49
2023-03-29T00:36:37.593Z,188.09
2023-03-29T00:37:37.596Z,188.62
2023-03-29T00:38:37.816Z,186.60
2023-03-29T00:39:37.819Z,185.87
2023-03-29T00:40:37.551Z,186.60
2023-03-29T00:41:37.836Z,186.71
2023-03-29T00:42:37.533Z,188.09
2023-03-29T00:43:37.492Z,186.60
2023-03-29T00:44:37.657Z,188.95
2023-03-29T00:45:37.475Z,189.82
2023-03-29T00:46:37.965Z,189.92
2023-03-29T00:47:37.892Z,191.02
2023-03-29T00:48:37.758Z,190.25
2023-03-29T00:49:37.765Z,192.58
2023-03-29T00:50:38.000Z,193.37
2023-03-29T00:51:37.422Z,193.26
2023-03-29T00:52:37.462Z,193.37
2023-03-29T00:53:37.507Z,193.71
2023-03-29T00:54:38.033Z,196.24
2023-03-29T00:55:38.036Z,197.53
2023-03-29T00:56:37.442Z,199.19
2023-03-29T00:57:37.400Z,201.01
2023-03-29T00:58:37.352Z,203.11
2023-03-29T00:59:37.447Z,204.37
2023-03-29T01:00:37.322Z,206.41
2023-03-29T01:01:37.321Z,208.75
2023-03-29T01:02:37.652Z,207.05
2023-03-29T01:03:37.717Z,211.42
2023-03-29T01:04:37.609Z,212.79
2023-03-29T01:05:37.520Z,211.70
2023-03-29T01:06:37.707Z,213.47
2023-03-29T01:07:37.250Z,212.79
2023-03-29T01:08:37.230Z,214.72
2023-03-29T01:09:37.212Z,214.30
2023-03-29T01:10:37.211Z,213.61
2023-03-29T01:11:37.222Z,214.30
2023-03-29T01:12:37.209Z,213.89
2023-03-29T01:13:37.178Z,213.75
2023-03-29T01:14:37.146Z,213.47
2023-03-29T01:15:37.148Z,214.86
2023-03-29T01:16:37.176Z,214.86
2023-03-29T01:17:37.269Z,215.56
2023-03-29T01:18:37.226Z,215.56
2023-03-29T01:19:37.226Z,217.40
2023-03-29T01:20:37.370Z,217.83
2023-03-29T01:21:37.234Z,217.83
2023-03-29T01:22:37.069Z,218.99
2023-03-29T01:23:37.214Z,217.26
2023-03-29T01:24:37.043Z,220.74
2023-03-29T01:25:37.026Z,221.78
2023-03-29T01:26:37.229Z,222.08
2023-03-29T01:27:37.322Z,224.95
2023-03-29T01:28:37.250Z,227.11
2023-03-29T01:29:37.236Z,224.19
2023-03-29T01:30:37.243Z,221.04
2023-03-29T01:31:36.973Z,211.83
2023-03-29T01:32:37.157Z,201.38
2023-03-29T01:33:37.077Z,197.06
2023-03-29T01:34:37.225Z,185.66
2023-03-29T01:35:37.266Z,176.79
2023-03-29T01:36:37.247Z,174.58
2023-03-29T01:37:37.239Z,172.97
2023-03-29T01:38:37.233Z,171.21
2023-03-29T01:39:37.243Z,169.48
2023-03-29T01:40:37.038Z,168.80
2023-03-29T01:41:37.175Z,168.97
2023-03-29T01:42:36.842Z,166.62
2023-03-29T01:43:36.856Z,165.31
2023-03-29T01:44:36.861Z,161.97
2023-03-29T01:45:36.898Z,159.51
2023-03-29T01:46:36.799Z,154.38
2023-03-29T01:47:36.999Z,145.94
2023-03-29T01:48:36.771Z,139.64
2023-03-29T01:49:36.767Z,132.59
2023-03-29T01:50:36.770Z,126.69
2023-03-29T01:51:36.786Z,121.57
2023-03-29T01:52:36.787Z,120.78
2023-03-29T01:53:36.812Z,118.15
2023-03-29T01:54:36.696Z,115.47
2023-03-29T01:55:36.694Z,114.14
2023-03-29T01:56:36.876Z,111.27
2023-03-29T01:57:36.682Z,110.25
2023-03-29T01:58:36.921Z,110.32
2023-03-29T01:59:36.830Z,111.05
2023-03-29T02:00:36.906Z,109.39
2023-03-29T02:01:36.950Z,108.96
2023-03-29T02:02:36.979Z,108.40
2023-03-29T02:03:36.952Z,106.27
2023-03-29T02:04:36.577Z,105.94
2023-03-29T02:05:36.564Z,104.75
2023-03-29T02:06:36.705Z,104.49
2023-03-29T02:07:36.611Z,104.36
2023-03-29T02:08:37.015Z,105.01
2023-03-29T02:09:36.769Z,106.81
2023-03-29T02:10:36.509Z,108.12
2023-03-29T02:11:36.546Z,110.83
2023-03-29T02:12:36.770Z,115.07
2023-03-29T02:13:37.111Z,118.82
2023-03-29T02:14:37.110Z,121.74
2023-03-29T02:15:36.565Z,126.03
2023-03-29T02:16:36.508Z,128.73
2023-03-29T02:17:37.203Z,131.04
2023-03-29T02:18:36.476Z,128.83
2023-03-29T02:19:36.416Z,127.27
2023-03-29T02:20:36.410Z,127.08
2023-03-29T02:21:36.870Z,126.89
2023-03-29T02:22:36.589Z,126.03
2023-03-29T02:23:37.248Z,124.08
2023-03-29T02:24:36.821Z,122.63
2023-03-29T02:25:36.378Z,122.01
2023-03-29T02:26:37.267Z,121.13
2023-03-29T02:27:37.224Z,120.78
2023-03-29T02:28:36.788Z,121.65
2023-03-29T02:29:36.290Z,120.18
2023-03-29T02:30:36.290Z,117.00
2023-03-29T02:31:36.427Z,112.76
2023-03-29T02:32:36.287Z,110.75
2023-03-29T02:33:36.277Z,111.71
2023-03-29T02:34:36.285Z,112.68
2023-03-29T02:35:36.406Z,115.39
2023-03-29T02:36:36.200Z,118.90
2023-03-29T02:37:36.281Z,123.17
2023-03-29T02:38:36.277Z,125.75
2023-03-29T02:39:36.280Z,128.54
2023-03-29T02:40:36.288Z,129.93
2023-03-29T02:41:36.287Z,127.66
2023-03-29T02:42:36.134Z,125.65
2023-03-29T02:43:36.289Z,124.54
2023-03-29T02:44:36.110Z,121.74
2023-03-29T02:45:36.114Z,119.15
2023-03-29T02:46:36.341Z,115.47
2023-03-29T02:47:36.142Z,115.71
2023-03-29T02:48:36.281Z,112.08
2023-03-29T02:49:36.088Z,111.56
2023-03-29T02:50:36.285Z,108.68
2023-03-29T02:51:36.061Z,108.12
2023-03-29T02:52:36.295Z,108.54
2023-03-29T02:53:36.020Z,109.39
2023-03-29T02:54:36.294Z,108.89
2023-03-29T02:55:36.310Z,108.12
2023-03-29T02:56:37.059Z,106.07
2023-03-29T02:57:36.298Z,105.08
2023-03-29T02:58:36.283Z,105.87
2023-03-29T02:59:35.965Z,106.75
2023-03-29T03:00:35.916Z,107.08
2023-03-29T03:01:36.492Z,106.75
2023-03-29T03:02:36.341Z,101.83
2023-03-29T03:03:36.368Z,95.85
2023-03-29T03:04:36.208Z,95.18
2023-03-29T03:05:36.311Z,95.50
2023-03-29T03:06:36.303Z,95.09
2023-03-29T03:07:35.875Z,97.92
2023-03-29T03:08:35.829Z,100.79
2023-03-29T03:09:35.886Z,101.83
2023-03-29T03:10:35.888Z,102.58
2023-03-29T03:11:35.904Z,104.95
2023-03-29T03:12:35.919Z,105.81
2023-03-29T03:13:35.932Z,105.54
2023-03-29T03:14:35.943Z,106.88
2023-03-29T03:15:35.991Z,107.63
2023-03-29T03:16:35.984Z,106.88
2023-03-29T03:17:36.058Z,107.70
2023-03-29T03:18:35.731Z,109.74
2023-03-29T03:19:35.805Z,110.83
2023-03-29T03:20:35.773Z,112.31
2023-03-29T03:21:35.802Z,112.46
2023-03-29T03:22:35.826Z,112.46
2023-03-29T03:23:35.865Z,112.91
2023-03-29T03:24:35.638Z,112.23
2023-03-29T03:25:35.921Z,112.16
2023-03-29T03:26:35.977Z,112.23
2023-03-29T03:27:35.988Z,113.98
2023-03-29T03:28:36.012Z,115.15
2023-03-29T03:29:36.045Z,115.71
2023-03-29T03:30:36.069Z,115.63
2023-03-29T03:31:36.236Z,114.76
2023-03-29T03:32:36.168Z,113.67
2023-03-29T03:33:36.177Z,111.93
2023-03-29T03:34:35.728Z,110.54
2023-03-29T03:35:35.626Z,108.33
2023-03-29T03:36:36.229Z,106.34
2023-03-29T03:37:36.021Z,104.36
2023-03-29T03:38:35.487Z,103.40
2023-03-29T03:39:35.553Z,100.61
2023-03-29T03:40:35.918Z,99.31
2023-03-29T03:41:35.561Z,99.13
2023-03-29T03:42:36.306Z,98.43
2023-03-29T03:43:35.487Z,98.32
2023-03-29T03:44:36.323Z,97.46
2023-03-29T03:45:36.352Z,97.80
2023-03-29T03:46:35.398Z,98.96
2023-03-29T03:47:36.236Z,99.54
2023-03-29T03:48:35.392Z,103.53
2023-03-29T03:49:35.363Z,105.14
2023-03-29T03:50:35.366Z,107.43
2023-03-29T03:51:35.346Z,109.89
2023-03-29T03:52:35.332Z,111.41
2023-03-29T03:53:35.336Z,110.39
2023-03-29T03:54:35.318Z,109.31
2023-03-29T03:55:35.297Z,108.05
2023-03-29T03:56:35.333Z,107.70
2023-03-29T03:57:35.341Z,105.74
2023-03-29T03:58:35.335Z,105.01
2023-03-29T03:59:35.395Z,103.84
2023-03-29T04:00:35.334Z,103.33
2023-03-29T04:01:35.414Z,103.97
2023-03-29T04:02:35.388Z,104.95
2023-03-29T04:03:35.413Z,104.17
2023-03-29T04:04:35.354Z,104.36
2023-03-29T04:05:35.346Z,104.56
2023-03-29T04:06:35.175Z,103.14
2023-03-29T04:07:35.175Z,102.58
2023-03-29T04:08:35.196Z,101.34
2023-03-29T04:09:35.173Z,101.10
2023-03-29T04:10:35.118Z,101.52
2023-03-29T04:11:35.113Z,101.89
2023-03-29T04:12:35.088Z,101.28
2023-03-29T04:13:35.353Z,101.71
2023-03-29T04:14:35.155Z,101.34
2023-03-29T04:15:35.137Z,101.28
2023-03-29T04:16:35.357Z,102.51
2023-03-29T04:17:35.272Z,102.76
2023-03-29T04:18:35.096Z,102.51
2023-03-29T04:19:35.034Z,102.58
2023-03-29T04:20:35.352Z,102.58
2023-03-29T04:21:35.357Z,103.02
2023-03-29T04:22:35.349Z,103.40
2023-03-29T04:23:35.262Z,102.70
2023-03-29T04:24:35.359Z,101.96
2023-03-29T04:25:34.960Z,102.08
2023-03-29T04:26:35.222Z,103.91
2023-03-29T04:27:34.962Z,105.14
2023-03-29T04:28:34.899Z,106.95
2023-03-29T04:29:34.944Z,107.84
2023-03-29T04:30:34.959Z,108.54
2023-03-29T04:31:34.967Z,109.60
2023-03-29T04:32:35.020Z,109.89
2023-03-29T04:33:34.874Z,112.31
2023-03-29T04:34:34.855Z,116.67
2023-03-29T04:35:34.930Z,120.61
2023-03-29T04:36:34.854Z,122.72
2023-03-29T04:37:34.821Z,124.63
2023-03-29T04:38:35.066Z,127.27
2023-03-29T04:39:34.808Z,128.14
2023-03-29T04:40:34.780Z,128.54
2023-03-29T04:41:35.101Z,128.05
2023-03-29T04:42:34.765Z,126.60
2023-03-29T04:43:34.755Z,126.50
2023-03-29T04:44:34.765Z,127.17
2023-03-29T04:45:35.157Z,127.08
2023-03-29T04:46:35.252Z,127.37
2023-03-29T04:47:35.009Z,127.37
2023-03-29T04:48:35.194Z,129.63
2023-03-29T04:49:34.688Z,128.73
2023-03-29T04:50:35.005Z,131.35
2023-03-29T04:51:34.672Z,134.82
2023-03-29T04:52:34.653Z,137.24
2023-03-29T04:53:34.976Z,139.29
2023-03-29T04:54:34.627Z,140.10
2023-03-29T04:55:34.609Z,141.52
2023-03-29T04:56:34.657Z,140.34
2023-03-29T04:57:34.687Z,141.52
2023-03-29T04:58:34.571Z,142.12
2023-03-29T04:59:34.581Z,141.16
2023-03-29T05:00:34.542Z,140.34
2023-03-29T05:01:34.657Z,139.29
2023-03-29T05:02:34.888Z,133.54
2023-03-29T05:03:34.871Z,129.03
2023-03-29T05:04:34.598Z,124.72
2023-03-29T05:05:34.935Z,123.35
2023-03-29T05:06:34.470Z,122.18
2023-03-29T05:07:34.972Z,123.35
2023-03-29T05:08:34.472Z,127.27
2023-03-29T05:09:35.589Z,128.54
2023-03-29T05:10:34.471Z,128.54
2023-03-29T05:11:34.467Z,126.50
2023-03-29T05:12:34.860Z,125.75
2023-03-29T05:13:34.423Z,124.26
2023-03-29T05:14:34.384Z,124.72
2023-03-29T05:15:34.430Z,126.69
2023-03-29T05:16:34.400Z,128.54
2023-03-29T05:17:34.416Z,128.83
2023-03-29T05:18:34.468Z,128.93
2023-03-29T05:19:34.345Z,129.03
2023-03-29T05:20:34.322Z,131.24
2023-03-29T05:21:34.318Z,130.33
2023-03-29T05:22:34.307Z,127.85
2023-03-29T05:23:34.323Z,122.45
2023-03-29T05:24:34.301Z,121.21
2023-03-29T05:25:34.408Z,118.90
2023-03-29T05:26:34.452Z,118.82
2023-03-29T05:27:34.249Z,115.79
2023-03-29T05:28:34.240Z,114.06
2023-03-29T05:29:34.230Z,108.68
2023-03-29T05:30:34.235Z,101.46
2023-03-29T05:31:34.224Z,94.72
2023-03-29T05:32:34.236Z,92.96
2023-03-29T05:33:34.482Z,91.45
2023-03-29T05:34:34.452Z,91.25
2023-03-29T05:35:34.172Z,90.95
2023-03-29T05:36:34.431Z,93.07
2023-03-29T05:37:34.115Z,94.43
2023-03-29T05:38:34.493Z,94.96
2023-03-29T05:39:36.359Z,95.15
2023-03-29T05:40:34.452Z,97.29
2023-03-29T05:41:34.991Z,96.35
2023-03-29T05:42:34.081Z,94.88
2023-03-29T05:43:34.040Z,93.66
2023-03-29T05:44:34.062Z,95.96
2023-03-29T05:45:34.248Z,97.46
2023-03-29T05:46:34.019Z,101.10
2023-03-29T05:47:34.030Z,103.78
2023-03-29T05:48:34.154Z,106.41
2023-03-29T05:49:34.065Z,105.94
2023-03-29T05:50:34.036Z,99.19
2023-03-29T05:51:33.953Z,95.91
2023-03-29T05:52:34.058Z,94.11
2023-03-29T05:53:34.065Z,90.46
2023-03-29T05:54:33.930Z,89.79
2023-03-29T05:55:33.944Z,91.25
2023-03-29T05:56:33.905Z,88.93
2023-03-29T05:57:34.122Z,87.72
2023-03-29T05:58:34.151Z,88.37
2023-03-29T05:59:33.910Z,89.50
2023-03-29T06:00:34.169Z,89.79
2023-03-29T06:01:33.856Z,89.98
2023-03-29T06:02:33.899Z,88.65
2023-03-29T06:03:34.093Z,86.64
2023-03-29T06:04:34.039Z,84.38
2023-03-29T06:05:33.807Z,83.29
2023-03-29T06:06:34.256Z,84.04
2023-03-29T06:07:33.790Z,86.29
2023-03-29T06:08:33.813Z,88.19
2023-03-29T06:09:33.746Z,89.50
2023-03-29T06:10:33.779Z,88.46
2023-03-29T06:11:33.734Z,89.50
2023-03-29T06:12:33.752Z,90.56
2023-03-29T06:13:34.350Z,92.45
2023-03-29T06:14:34.360Z,93.69
2023-03-29T06:15:33.696Z,95.18
2023-03-29T06:16:34.404Z,95.28
2023-03-29T06:17:34.424Z,93.90
2023-03-29T06:18:34.235Z,93.79
2023-03-29T06:19:33.627Z,92.86
2023-03-29T06:20:33.640Z,91.75
2023-03-29T06:21:33.881Z,91.95
2023-03-29T06:22:34.455Z,95.07
2023-03-29T06:23:33.589Z,96.07
2023-03-29T06:24:33.880Z,99.01
2023-03-29T06:25:33.564Z,100.97
2023-03-29T06:26:34.527Z,103.59
2023-03-29T06:27:33.880Z,105.28
2023-03-29T06:28:33.541Z,105.61
2023-03-29T06:29:34.457Z,105.94
2023-03-29T06:30:34.083Z,103.59
2023-03-29T06:31:33.519Z,100.55
2023-03-29T06:32:33.563Z,99.19
2023-03-29T06:33:33.483Z,99.90
2023-03-29T06:34:33.476Z,100.97
2023-03-29T06:35:33.477Z,99.90
2023-03-29T06:36:33.448Z,96.02
2023-03-29T06:37:33.445Z,93.90
2023-03-29T06:38:33.429Z,94.85
2023-03-29T06:39:33.408Z,95.39
2023-03-29T06:40:33.440Z,94.29
2023-03-29T06:41:33.394Z,94.24
2023-03-29T06:42:33.375Z,95.18
2023-03-29T06:43:33.548Z,94.11
2023-03-29T06:44:33.358Z,94.00
2023-03-29T06:45:33.331Z,92.86
2023-03-29T06:46:33.376Z,91.25
2023-03-29T06:47:33.363Z,91.05
2023-03-29T06:48:33.340Z,91.85
2023-03-29T06:49:33.283Z,91.95
2023-03-29T06:50:33.285Z,94.75
2023-03-29T06:51:33.263Z,95.04
2023-03-29T06:52:33.273Z,97.12
2023-03-29T06:53:33.262Z,97.63
2023-03-29T06:54:33.503Z,97.18
2023-03-29T06:55:33.218Z,97.35
2023-03-29T06:56:33.220Z,97.07
2023-03-29T06:57:33.477Z,97.35
2023-03-29T06:58:33.216Z,96.57
2023-03-29T06:59:33.183Z,96.62
2023-03-29T07:00:33.183Z,97.86
2023-03-29T07:01:33.561Z,99.72
2023-03-29T07:02:33.517Z,100.73
2023-03-29T07:03:33.139Z,101.46
2023-03-29T07:04:33.162Z,100.49
2023-03-29T07:05:33.110Z,97.69
2023-03-29T07:06:33.089Z,93.27
2023-03-29T07:07:33.072Z,89.79
2023-03-29T07:08:33.080Z,88.56
2023-03-29T07:09:33.104Z,87.45
2023-03-29T07:10:33.049Z,89.88
2023-03-29T07:11:33.037Z,93.38
2023-03-29T07:12:33.028Z,96.29
2023-03-29T07:13:33.128Z,99.48
2023-03-29T07:14:33.006Z,100.37
2023-03-29T07:15:32.973Z,102.20
2023-03-29T07:16:33.028Z,104.68
2023-03-29T07:17:33.272Z,107.22
2023-03-29T07:18:33.241Z,109.24
2023-03-29T07:19:32.930Z,112.08
2023-03-29T07:20:32.931Z,112.99
2023-03-29T07:21:32.902Z,110.97
2023-03-29T07:22:32.978Z,106.61
2023-03-29T07:23:32.898Z,98.61
2023-03-29T07:24:32.883Z,98.61
2023-03-29T07:25:33.390Z,99.31
2023-03-29T07:26:32.863Z,97.97
2023-03-29T07:27:32.834Z,96.79
2023-03-29T07:28:32.846Z,100.01
2023-03-29T07:29:32.815Z,101.59
2023-03-29T07:30:32.811Z,101.59
2023-03-29T07:31:32.798Z,103.08
2023-03-29T07:32:32.890Z,105.14
2023-03-29T07:33:32.894Z,107.36
2023-03-29T07:34:32.757Z,111.56
2023-03-29T07:35:32.951Z,115.47
2023-03-29T07:36:32.745Z,118.31
2023-03-29T07:37:32.710Z,117.90
2023-03-29T07:38:32.729Z,116.92
2023-03-29T07:39:32.696Z,116.83
2023-03-29T07:40:32.702Z,119.49
2023-03-29T07:41:33.512Z,123.80
2023-03-29T07:42:32.678Z,127.75
2023-03-29T07:43:32.661Z,132.70
2023-03-29T07:44:32.651Z,136.24
2023-03-29T07:45:32.708Z,140.22
2023-03-29T07:46:32.640Z,142.84
2023-03-29T07:47:32.611Z,144.56
2023-03-29T07:48:32.630Z,147.22
2023-03-29T07:49:32.810Z,150.65
2023-03-29T07:50:32.715Z,154.24
2023-03-29T07:51:33.507Z,156.69
2023-03-29T07:52:33.516Z,157.13
2023-03-29T07:53:32.532Z,155.82
2023-03-29T07:54:32.532Z,155.53
2023-03-29T07:55:32.504Z,154.24
2023-03-29T07:56:32.513Z,154.95
2023-03-29T07:57:32.486Z,154.10
2023-03-29T07:58:32.500Z,153.68
2023-03-29T07:59:32.451Z,153.26
2023-03-29T08:00:32.493Z,152.70
2023-03-29T08:01:32.497Z,144.44
2023-03-29T08:02:32.490Z,135.04
2023-03-29T08:03:32.471Z,136.91
2023-03-29T08:04:32.477Z,133.12
2023-03-29T08:05:40.716Z,131.55
2023-03-29T08:06:33.392Z,135.80
2023-03-29T08:07:32.381Z,143.09
2023-03-29T08:08:32.380Z,146.83
2023-03-29T08:09:32.353Z,152.29
2023-03-29T08:10:32.348Z,155.10
2023-03-29T08:11:32.323Z,156.54
2023-03-29T08:12:32.327Z,159.21
2023-03-29T08:13:32.519Z,161.04
2023-03-29T08:14:32.302Z,162.44
2023-03-29T08:15:32.273Z,163.54
2023-03-29T08:16:32.291Z,164.02
2023-03-29T08:17:32.300Z,162.13
2023-03-29T08:18:34.264Z,155.24
2023-03-29T08:19:32.250Z,148.91
2023-03-29T08:20:32.232Z,147.35
2023-03-29T08:21:32.537Z,142.12
2023-03-29T08:22:32.229Z,139.18
2023-03-29T08:23:32.193Z,135.26
2023-03-29T08:24:32.168Z,132.17
2023-03-29T08:25:32.160Z,130.84
2023-03-29T08:26:32.160Z,127.66
2023-03-29T08:27:32.133Z,124.91
2023-03-29T08:28:32.170Z,117.16
2023-03-29T08:29:32.204Z,110.68
2023-03-29T08:30:32.144Z,107.91
2023-03-29T08:31:32.143Z,105.61
2023-03-29T08:32:32.106Z,102.76
2023-03-29T08:33:32.083Z,100.79
2023-03-29T08:34:32.072Z,100.31
2023-03-29T08:35:32.058Z,103.40
2023-03-29T08:36:32.095Z,106.21
2023-03-29T08:37:32.126Z,111.71
2023-03-29T08:38:32.047Z,117.40
2023-03-29T08:39:31.992Z,121.83
2023-03-29T08:40:31.997Z,126.60
2023-03-29T08:41:31.978Z,131.97
2023-03-29T08:42:32.047Z,133.22
2023-03-29T08:43:31.967Z,134.50
2023-03-29T08:44:31.944Z,134.61
2023-03-29T08:45:32.440Z,135.58
2023-03-29T08:46:35.490Z,137.36
2023-03-29T08:47:31.905Z,136.35
2023-03-29T08:48:31.910Z,136.02
2023-03-29T08:49:31.923Z,137.69
2023-03-29T08:50:31.880Z,137.47
2023-03-29T08:51:31.854Z,138.26
2023-03-29T08:52:31.853Z,138.60
2023-03-29T08:53:31.852Z,137.81
2023-03-29T08:54:31.852Z,134.71
2023-03-29T08:55:31.803Z,132.17
2023-03-29T08:56:34.130Z,128.83
2023-03-29T08:57:31.784Z,126.50
2023-03-29T08:58:31.782Z,128.05
2023-03-29T08:59:31.779Z,128.54
2023-03-29T09:00:32.060Z,129.73
2023-03-29T09:01:32.122Z,130.63
2023-03-29T09:02:31.791Z,130.73
2023-03-29T09:03:31.883Z,131.97
2023-03-29T09:04:31.730Z,134.18
2023-03-29T09:05:31.699Z,137.69
2023-03-29T09:06:31.698Z,139.06
2023-03-29T09:07:31.671Z,139.29
2023-03-29T09:08:31.745Z,138.49
2023-03-29T09:09:31.734Z,138.83
2023-03-29T09:10:31.648Z,134.71
2023-03-29T09:11:31.623Z,123.26
2023-03-29T09:12:31.618Z,118.82
2023-03-29T09:13:31.623Z,122.99
2023-03-29T09:14:31.646Z,130.43
2023-03-29T09:15:31.610Z,138.26
2023-03-29T09:16:31.610Z,143.94
2023-03-29T09:17:31.650Z,149.98
2023-03-29T09:18:31.552Z,156.40
2023-03-29T09:19:31.520Z,160.42
2023-03-29T09:20:31.545Z,165.15
2023-03-29T09:21:31.512Z,168.97
2023-03-29T09:22:31.521Z,171.38
2023-03-29T09:23:31.484Z,175.49
2023-03-29T09:24:31.494Z,177.35
2023-03-29T09:25:34.527Z,175.13
2023-03-29T09:26:32.471Z,161.35
2023-03-29T09:27:31.593Z,156.54
2023-03-29T09:28:31.437Z,161.35
2023-03-29T09:29:31.415Z,167.29
2023-03-29T09:30:31.411Z,172.79
2023-03-29T09:31:31.429Z,178.48
2023-03-29T09:32:31.483Z,184.35
2023-03-29T09:33:31.611Z,187.66
2023-03-29T09:34:31.376Z,188.41
2023-03-29T09:35:31.600Z,185.36
2023-03-29T09:36:31.352Z,185.66
2023-03-29T09:37:31.330Z,190.47
2023-03-29T09:38:31.302Z,196.35
2023-03-29T09:39:31.303Z,202.12
2023-03-29T09:40:31.325Z,207.31
2023-03-29T09:41:31.349Z,207.18
2023-03-29T09:42:31.277Z,204.62
2023-03-29T09:43:31.280Z,196.94
2023-03-29T09:44:31.761Z,200.16
2023-03-29T09:45:31.298Z,206.54
2023-03-29T09:46:31.222Z,210.75
2023-03-29T09:47:31.227Z,215.42
2023-03-29T09:48:31.324Z,222.68
2023-03-29T09:49:31.359Z,227.42
2023-03-29T09:50:32.190Z,217.83
2023-03-29T09:51:31.383Z,216.98
2023-03-29T09:52:31.136Z,211.15
2023-03-29T09:53:31.164Z,206.02
2023-03-29T09:54:31.112Z,209.15
2023-03-29T09:55:31.120Z,216.12
2023-03-29T09:56:31.441Z,218.41
2023-03-29T09:57:31.495Z,217.12
2023-03-29T09:58:31.078Z,217.26
2023-03-29T09:59:31.090Z,214.30
2023-03-29T10:00:31.059Z,204.24
2023-03-29T10:01:31.069Z,177.35
2023-03-29T10:02:31.058Z,165.15
2023-03-29T10:03:31.035Z,168.29
2023-03-29T10:04:31.019Z,168.29
2023-03-29T10:05:31.555Z,168.80
2023-03-29T10:06:30.972Z,169.48
2023-03-29T10:07:30.984Z,156.25
2023-03-29T10:08:30.970Z,147.87
2023-03-29T10:09:30.962Z,143.82
2023-03-29T10:10:30.933Z,145.18
2023-03-29T10:11:30.947Z,150.65
2023-03-29T10:12:30.915Z,156.25
2023-03-29T10:13:30.913Z,163.39
2023-03-29T10:14:30.896Z,175.31
2023-03-29T10:15:30.982Z,182.35
2023-03-29T10:16:30.907Z,186.39
2023-03-29T10:17:30.886Z,182.35
2023-03-29T10:18:30.841Z,170.17
2023-03-29T10:19:30.850Z,155.38
2023-03-29T10:20:30.807Z,150.51
2023-03-29T10:21:31.006Z,141.04
2023-03-29T10:22:30.789Z,128.05
2023-03-29T10:23:30.795Z,120.78
2023-03-29T10:24:30.801Z,135.91
2023-03-29T10:25:30.773Z,153.82
2023-03-29T10:26:30.736Z,165.64
2023-03-29T10:27:30.756Z,174.40
2023-03-29T10:28:30.829Z,164.51
2023-03-29T10:29:30.846Z,172.97
2023-03-29T10:30:30.691Z,183.74
2023-03-29T10:31:30.738Z,193.14
2023-03-29T10:32:30.785Z,201.13
2023-03-29T10:33:30.678Z,211.42
2023-03-29T10:34:30.670Z,215.14
2023-03-29T10:35:30.716Z,219.57
2023-03-29T10:36:30.627Z,227.27
2023-03-29T10:37:30.707Z,232.22
2023-03-29T10:38:30.603Z,241.37
2023-03-29T10:39:30.623Z,249.38
2023-03-29T10:40:30.614Z,257.14
2023-03-29T10:41:30.594Z,262.04
2023-03-29T10:42:30.562Z,268.64
2023-03-29T10:43:30.556Z,273.53
2023-03-29T10:44:32.787Z,281.45
2023-03-29T10:45:30.535Z,282.65
2023-03-29T10:46:30.611Z,281.93
2023-03-29T10:47:30.697Z,281.69
2023-03-29T10:48:30.496Z,280.73
2023-03-29T10:49:30.503Z,270.40
2023-03-29T10:50:30.649Z,268.86
2023-03-29T10:51:30.457Z,269.95
2023-03-29T10:52:30.650Z,271.28
2023-03-29T10:53:30.668Z,271.28
2023-03-29T10:54:30.438Z,273.08
2023-03-29T10:55:30.661Z,271.28
2023-03-29T10:56:30.409Z,265.62
2023-03-29T10:57:30.436Z,258.76
2023-03-29T10:58:30.658Z,255.75
2023-03-29T10:59:31.147Z,259.36
2023-03-29T11:00:30.383Z,264.34
2023-03-29T11:01:30.424Z,267.77
2023-03-29T11:02:30.480Z,272.18
2023-03-29T11:03:30.498Z,276.50
2023-03-29T11:04:30.300Z,277.43
2023-03-29T11:05:30.327Z,282.41
2023-03-29T11:06:30.418Z,286.82
2023-03-29T11:07:30.285Z,286.82
2023-03-29T11:08:31.912Z,291.37
2023-03-29T11:09:30.459Z,293.44
2023-03-29T11:10:30.295Z,291.88
2023-03-29T11:11:30.246Z,298.74
2023-03-29T11:12:30.197Z,300.10
2023-03-29T11:13:30.234Z,288.07
2023-03-29T11:14:30.311Z,282.41
2023-03-29T11:15:30.213Z,282.65
2023-03-29T11:16:30.195Z,263.50
2023-03-29T11:17:30.231Z,246.41
2023-03-29T11:18:30.145Z,227.27
2023-03-29T11:19:30.145Z,214.72
2023-03-29T11:20:30.351Z,215.70
2023-03-29T11:21:30.251Z,220.01
2023-03-29T11:22:30.112Z,220.74
2023-03-29T11:23:30.096Z,229.64
2023-03-29T11:24:30.640Z,237.05
2023-03-29T11:25:30.118Z,242.08
2023-03-29T11:26:30.058Z,248.63
2023-03-29T11:27:30.258Z,253.40
2023-03-29T11:28:30.032Z,257.35
2023-03-29T11:29:30.036Z,259.77
2023-03-29T11:30:30.131Z,262.66
2023-03-29T11:31:30.407Z,266.04
2023-03-29T11:32:30.709Z,270.17
2023-03-29T11:33:30.290Z,269.73
2023-03-29T11:34:29.962Z,279.31
2023-03-29T11:35:30.380Z,293.18
2023-03-29T11:36:29.931Z,311.41
2023-03-29T11:37:29.938Z,328.10
2023-03-29T11:38:29.923Z,331.39
2023-03-29T11:39:29.933Z,334.40
2023-03-29T11:40:30.730Z,344.51
2023-03-29T11:41:30.317Z,348.50
2023-03-29T11:42:30.692Z,356.01
2023-03-29T11:43:30.328Z,371.20
2023-03-29T11:44:30.550Z,383.24
2023-03-29T11:45:30.332Z,388.34
2023-03-29T11:46:29.842Z,399.42
2023-03-29T11:47:29.855Z,404.96
2023-03-29T11:48:30.902Z,406.43
2023-03-29T11:49:30.354Z,412.67
2023-03-29T11:50:29.764Z,421.74
2023-03-29T11:51:30.242Z,430.38
2023-03-29T11:52:29.733Z,435.40
2023-03-29T11:53:30.011Z,437.67
2023-03-29T11:54:29.714Z,437.10
2023-03-29T11:55:29.742Z,441.12
2023-03-29T11:56:29.724Z,440.83
2023-03-29T11:57:29.723Z,444.33
2023-03-29T11:58:29.668Z,452.71
2023-03-29T11:59:29.705Z,453.02
2023-03-29T12:00:29.677Z,451.80
2023-03-29T12:01:29.709Z,456.71
2023-03-29T12:02:29.715Z,459.21
2023-03-29T12:03:29.756Z,465.25
2023-03-29T12:04:29.732Z,473.12
2023-03-29T12:05:29.712Z,469.81
2023-03-29T12:06:29.595Z,471.79
2023-03-29T12:07:29.609Z,469.81
2023-03-29T12:08:29.578Z,470.47
2023-03-29T12:09:29.719Z,477.49
2023-03-29T12:10:29.656Z,471.13
2023-03-29T12:11:29.558Z,472.79
2023-03-29T12:12:29.690Z,476.81
2023-03-29T12:13:29.749Z,479.19
2023-03-29T12:14:29.718Z,487.18
2023-03-29T12:15:29.596Z,488.60
2023-03-29T12:16:29.759Z,491.82
2023-03-29T12:17:29.524Z,492.90
2023-03-29T12:18:29.538Z,495.08
2023-03-29T12:19:29.717Z,496.91
2023-03-29T12:20:29.714Z,505.13
2023-03-29T12:21:29.735Z,512.45
2023-03-29T12:22:29.407Z,501.74
2023-03-29T12:23:29.403Z,493.63
2023-03-29T12:24:29.372Z,507.42
2023-03-29T12:25:29.379Z,507.04
2023-03-29T12:26:29.354Z,515.60
2023-03-29T12:27:29.381Z,513.63
2023-03-29T12:28:29.465Z,505.51
2023-03-29T12:29:29.501Z,510.12
2023-03-29T12:30:29.303Z,516.39
2023-03-29T12:31:29.547Z,517.99